sensor_id;sensor_type;location;lat;lon;timestamp;P1;durP1;ratioP1;P2;durP2;ratioP2
62037;SDS011;47991;42.974;12.082;2022-11-15T00:02:53;11.60;;;5.10;;
62037;SDS011;47991;42.974;12.082;2022-11-15T00:05:40;10.90;;;5.30;;
62037;SDS011;47991;42.974;12.082;2022-11-15T00:08:30;11.20;;;5.30;;
62037;SDS011;47991;42.974;12.082;2022-11-15T00:11:17;12.90;;;6.10;;
62037;SDS011;47991;42.974;12.082;2022-11-15T00:14:04;13.70;;;5.90;;
62037;SDS011;47991;42.974;12.082;2022-11-15T00:16:50;13.90;;;6.40;;
62037;SDS011;47991;42.974;12.082;2022-11-15T00:19:36;11.50;;;5.60;;
62037;SDS011;47991;42.974;12.082;2022-11-15T00:22:22;14.00;;;5.50;;
62037;SDS011;47991;42.974;12.082;2022-11-15T00:25:09;13.40;;;5.70;;
62037;SDS011;47991;42.974;12.082;2022-11-15T00:27:55;11.00;;;5.60;;
62037;SDS011;47991;42.974;12.082;2022-11-15T00:30:42;15.60;;;5.90;;
62037;SDS011;47991;42.974;12.082;2022-11-15T00:33:33;12.80;;;5.20;;
62037;SDS011;47991;42.974;12.082;2022-11-15T00:36:20;11.00;;;5.80;;
62037;SDS011;47991;42.974;12.082;2022-11-15T00:39:06;10.50;;;5.50;;
62037;SDS011;47991;42.974;12.082;2022-11-15T00:41:53;11.40;;;6.10;;
62037;SDS011;47991;42.974;12.082;2022-11-15T00:44:39;13.80;;;5.90;;
62037;SDS011;47991;42.974;12.082;2022-11-15T00:47:26;13.50;;;5.70;;
62037;SDS011;47991;42.974;12.082;2022-11-15T00:50:13;13.40;;;5.30;;
62037;SDS011;47991;42.974;12.082;2022-11-15T00:52:59;11.80;;;6.40;;
62037;SDS011;47991;42.974;12.082;2022-11-15T00:55:46;12.50;;;5.40;;
62037;SDS011;47991;42.974;12.082;2022-11-15T00:58:32;12.00;;;5.30;;
62037;SDS011;47991;42.974;12.082;2022-11-15T01:01:19;10.30;;;4.70;;
62037;SDS011;47991;42.974;12.082;2022-11-15T01:04:06;11.10;;;5.10;;
62037;SDS011;47991;42.974;12.082;2022-11-15T01:06:53;10.20;;;5.10;;
62037;SDS011;47991;42.974;12.082;2022-11-15T01:09:39;15.10;;;5.50;;
62037;SDS011;47991;42.974;12.082;2022-11-15T01:12:26;10.40;;;5.30;;
62037;SDS011;47991;42.974;12.082;2022-11-15T01:15:14;10.30;;;5.20;;
62037;SDS011;47991;42.974;12.082;2022-11-15T01:18:00;10.90;;;5.20;;
62037;SDS011;47991;42.974;12.082;2022-11-15T01:20:46;8.70;;;4.50;;
62037;SDS011;47991;42.974;12.082;2022-11-15T01:23:33;14.70;;;4.50;;
62037;SDS011;47991;42.974;12.082;2022-11-15T01:26:19;8.20;;;4.20;;
62037;SDS011;47991;42.974;12.082;2022-11-15T01:29:06;14.10;;;4.50;;
62037;SDS011;47991;42.974;12.082;2022-11-15T01:31:53;11.10;;;5.00;;
62037;SDS011;47991;42.974;12.082;2022-11-15T01:34:40;11.10;;;4.40;;
62037;SDS011;47991;42.974;12.082;2022-11-15T01:37:28;11.20;;;4.80;;
62037;SDS011;47991;42.974;12.082;2022-11-15T01:40:14;7.90;;;4.10;;
62037;SDS011;47991;42.974;12.082;2022-11-15T01:43:18;12.30;;;4.10;;
62037;SDS011;47991;42.974;12.082;2022-11-15T01:49:11;11.20;;;5.40;;
62037;SDS011;47991;42.974;12.082;2022-11-15T01:52:03;9.80;;;5.10;;
62037;SDS011;47991;42.974;12.082;2022-11-15T01:54:56;16.80;;;4.90;;
62037;SDS011;47991;42.974;12.082;2022-11-15T01:57:58;11.20;;;5.40;;
62037;SDS011;47991;42.974;12.082;2022-11-15T02:00:47;11.70;;;5.40;;
62037;SDS011;47991;42.974;12.082;2022-11-15T02:04:22;12.10;;;4.90;;
62037;SDS011;47991;42.974;12.082;2022-11-15T02:06:44;12.30;;;4.70;;
62037;SDS011;47991;42.974;12.082;2022-11-15T02:09:32;13.30;;;5.10;;
62037;SDS011;47991;42.974;12.082;2022-11-15T02:12:21;10.80;;;5.00;;
62037;SDS011;47991;42.974;12.082;2022-11-15T02:15:09;21.50;;;5.10;;
62037;SDS011;47991;42.974;12.082;2022-11-15T02:37:03;10.00;;;5.60;;
62037;SDS011;47991;42.974;12.082;2022-11-15T02:43:10;11.40;;;5.50;;
62037;SDS011;47991;42.974;12.082;2022-11-15T02:46:18;10.30;;;5.40;;
62037;SDS011;47991;42.974;12.082;2022-11-15T02:49:48;9.50;;;5.70;;
62037;SDS011;47991;42.974;12.082;2022-11-15T02:52:47;9.60;;;5.20;;
62037;SDS011;47991;42.974;12.082;2022-11-15T02:55:35;10.00;;;5.30;;
62037;SDS011;47991;42.974;12.082;2022-11-15T03:05:15;8.00;;;4.00;;
62037;SDS011;47991;42.974;12.082;2022-11-15T03:09:23;14.30;;;5.30;;
62037;SDS011;47991;42.974;12.082;2022-11-15T03:11:54;11.20;;;6.10;;
62037;SDS011;47991;42.974;12.082;2022-11-15T03:14:51;12.70;;;5.90;;
62037;SDS011;47991;42.974;12.082;2022-11-15T03:17:55;13.90;;;6.70;;
62037;SDS011;47991;42.974;12.082;2022-11-15T03:20:48;11.40;;;6.30;;
62037;SDS011;47991;42.974;12.082;2022-11-15T03:23:36;10.60;;;5.80;;
62037;SDS011;47991;42.974;12.082;2022-11-15T03:26:24;10.50;;;5.70;;
62037;SDS011;47991;42.974;12.082;2022-11-15T03:29:13;20.50;;;6.00;;
62037;SDS011;47991;42.974;12.082;2022-11-15T03:32:04;9.50;;;4.20;;
62037;SDS011;47991;42.974;12.082;2022-11-15T03:35:12;32.50;;;5.90;;
62037;SDS011;47991;42.974;12.082;2022-11-15T03:38:08;9.50;;;5.10;;
62037;SDS011;47991;42.974;12.082;2022-11-15T03:41:22;10.20;;;5.10;;
62037;SDS011;47991;42.974;12.082;2022-11-15T03:44:36;9.70;;;5.70;;
62037;SDS011;47991;42.974;12.082;2022-11-15T03:47:41;11.80;;;5.40;;
62037;SDS011;47991;42.974;12.082;2022-11-15T03:50:39;9.50;;;5.20;;
62037;SDS011;47991;42.974;12.082;2022-11-15T03:53:27;15.80;;;6.20;;
62037;SDS011;47991;42.974;12.082;2022-11-15T03:56:14;11.90;;;5.10;;
62037;SDS011;47991;42.974;12.082;2022-11-15T03:59:01;9.60;;;5.20;;
62037;SDS011;47991;42.974;12.082;2022-11-15T04:01:47;13.30;;;5.40;;
62037;SDS011;47991;42.974;12.082;2022-11-15T04:04:33;8.80;;;4.60;;
62037;SDS011;47991;42.974;12.082;2022-11-15T04:07:19;11.80;;;5.70;;
62037;SDS011;47991;42.974;12.082;2022-11-15T04:10:06;9.70;;;5.40;;
62037;SDS011;47991;42.974;12.082;2022-11-15T04:12:52;9.60;;;5.10;;
62037;SDS011;47991;42.974;12.082;2022-11-15T04:15:39;9.70;;;5.60;;
62037;SDS011;47991;42.974;12.082;2022-11-15T04:18:25;9.70;;;5.10;;
62037;SDS011;47991;42.974;12.082;2022-11-15T04:21:12;12.70;;;5.20;;
62037;SDS011;47991;42.974;12.082;2022-11-15T04:24:17;8.80;;;4.70;;
62037;SDS011;47991;42.974;12.082;2022-11-15T04:27:03;6.90;;;3.90;;
62037;SDS011;47991;42.974;12.082;2022-11-15T04:29:50;8.10;;;4.40;;
62037;SDS011;47991;42.974;12.082;2022-11-15T04:32:36;8.40;;;4.40;;
62037;SDS011;47991;42.974;12.082;2022-11-15T04:35:22;8.80;;;4.80;;
62037;SDS011;47991;42.974;12.082;2022-11-15T04:38:09;8.60;;;4.50;;
62037;SDS011;47991;42.974;12.082;2022-11-15T04:40:56;12.30;;;4.60;;
62037;SDS011;47991;42.974;12.082;2022-11-15T04:43:43;8.80;;;5.00;;
62037;SDS011;47991;42.974;12.082;2022-11-15T04:46:29;8.10;;;4.40;;
62037;SDS011;47991;42.974;12.082;2022-11-15T04:49:15;8.10;;;4.50;;
62037;SDS011;47991;42.974;12.082;2022-11-15T04:52:01;11.50;;;4.60;;
62037;SDS011;47991;42.974;12.082;2022-11-15T04:54:48;9.10;;;4.50;;
62037;SDS011;47991;42.974;12.082;2022-11-15T04:57:34;8.00;;;4.20;;
62037;SDS011;47991;42.974;12.082;2022-11-15T05:00:21;8.40;;;4.50;;
62037;SDS011;47991;42.974;12.082;2022-11-15T05:03:08;6.50;;;3.20;;
62037;SDS011;47991;42.974;12.082;2022-11-15T05:06:14;9.50;;;5.30;;
62037;SDS011;47991;42.974;12.082;2022-11-15T05:09:00;8.30;;;4.40;;
62037;SDS011;47991;42.974;12.082;2022-11-15T05:11:47;7.90;;;4.70;;
62037;SDS011;47991;42.974;12.082;2022-11-15T05:14:33;10.10;;;4.90;;
62037;SDS011;47991;42.974;12.082;2022-11-15T05:17:20;9.20;;;4.30;;
62037;SDS011;47991;42.974;12.082;2022-11-15T05:20:06;7.80;;;4.10;;
62037;SDS011;47991;42.974;12.082;2022-11-15T05:22:53;6.50;;;3.40;;
62037;SDS011;47991;42.974;12.082;2022-11-15T05:25:40;9.10;;;4.40;;
62037;SDS011;47991;42.974;12.082;2022-11-15T05:28:27;8.40;;;4.10;;
62037;SDS011;47991;42.974;12.082;2022-11-15T05:31:14;7.50;;;3.90;;
62037;SDS011;47991;42.974;12.082;2022-11-15T05:34:01;7.30;;;4.00;;
62037;SDS011;47991;42.974;12.082;2022-11-15T05:36:52;7.90;;;4.10;;
62037;SDS011;47991;42.974;12.082;2022-11-15T05:39:39;9.20;;;4.40;;
62037;SDS011;47991;42.974;12.082;2022-11-15T05:42:25;8.50;;;4.40;;
62037;SDS011;47991;42.974;12.082;2022-11-15T05:45:13;6.80;;;3.70;;
62037;SDS011;47991;42.974;12.082;2022-11-15T05:48:00;7.00;;;4.00;;
62037;SDS011;47991;42.974;12.082;2022-11-15T05:50:52;7.00;;;4.00;;
62037;SDS011;47991;42.974;12.082;2022-11-15T05:53:38;9.00;;;4.80;;
62037;SDS011;47991;42.974;12.082;2022-11-15T05:56:26;8.20;;;4.20;;
62037;SDS011;47991;42.974;12.082;2022-11-15T05:59:13;9.40;;;5.20;;
62037;SDS011;47991;42.974;12.082;2022-11-15T06:01:59;8.20;;;4.40;;
62037;SDS011;47991;42.974;12.082;2022-11-15T06:04:47;8.20;;;4.00;;
62037;SDS011;47991;42.974;12.082;2022-11-15T06:07:34;10.80;;;6.00;;
62037;SDS011;47991;42.974;12.082;2022-11-15T06:10:21;8.20;;;4.40;;
62037;SDS011;47991;42.974;12.082;2022-11-15T06:13:07;7.60;;;3.90;;
62037;SDS011;47991;42.974;12.082;2022-11-15T06:15:55;7.80;;;3.70;;
62037;SDS011;47991;42.974;12.082;2022-11-15T06:18:42;6.10;;;3.40;;
62037;SDS011;47991;42.974;12.082;2022-11-15T06:21:28;7.10;;;4.10;;
62037;SDS011;47991;42.974;12.082;2022-11-15T06:24:14;10.20;;;4.10;;
62037;SDS011;47991;42.974;12.082;2022-11-15T06:27:00;8.60;;;4.20;;
62037;SDS011;47991;42.974;12.082;2022-11-15T06:29:46;5.80;;;2.90;;
62037;SDS011;47991;42.974;12.082;2022-11-15T06:32:32;7.10;;;3.50;;
62037;SDS011;47991;42.974;12.082;2022-11-15T06:35:19;8.20;;;4.00;;
62037;SDS011;47991;42.974;12.082;2022-11-15T06:38:06;9.40;;;3.80;;
62037;SDS011;47991;42.974;12.082;2022-11-15T06:40:54;9.70;;;4.00;;
62037;SDS011;47991;42.974;12.082;2022-11-15T06:43:41;6.70;;;3.30;;
62037;SDS011;47991;42.974;12.082;2022-11-15T06:46:27;8.00;;;4.10;;
62037;SDS011;47991;42.974;12.082;2022-11-15T06:49:14;6.40;;;3.30;;
62037;SDS011;47991;42.974;12.082;2022-11-15T06:52:00;8.80;;;4.00;;
62037;SDS011;47991;42.974;12.082;2022-11-15T06:54:46;7.60;;;4.30;;
62037;SDS011;47991;42.974;12.082;2022-11-15T06:57:32;7.40;;;3.80;;
62037;SDS011;47991;42.974;12.082;2022-11-15T07:00:19;7.70;;;4.00;;
62037;SDS011;47991;42.974;12.082;2022-11-15T07:03:07;7.90;;;3.40;;
62037;SDS011;47991;42.974;12.082;2022-11-15T07:05:54;8.20;;;4.50;;
62037;SDS011;47991;42.974;12.082;2022-11-15T07:08:42;8.30;;;4.10;;
62037;SDS011;47991;42.974;12.082;2022-11-15T07:11:28;7.80;;;4.20;;
62037;SDS011;47991;42.974;12.082;2022-11-15T07:14:14;10.00;;;4.90;;
62037;SDS011;47991;42.974;12.082;2022-11-15T07:17:02;11.50;;;4.80;;
62037;SDS011;47991;42.974;12.082;2022-11-15T07:19:50;9.90;;;4.70;;
62037;SDS011;47991;42.974;12.082;2022-11-15T07:22:36;6.70;;;3.40;;
62037;SDS011;47991;42.974;12.082;2022-11-15T07:25:22;9.10;;;4.20;;
62037;SDS011;47991;42.974;12.082;2022-11-15T07:28:08;7.20;;;4.00;;
62037;SDS011;47991;42.974;12.082;2022-11-15T07:30:54;8.70;;;4.90;;
62037;SDS011;47991;42.974;12.082;2022-11-15T07:33:41;10.20;;;5.30;;
62037;SDS011;47991;42.974;12.082;2022-11-15T07:36:27;7.70;;;4.10;;
62037;SDS011;47991;42.974;12.082;2022-11-15T07:39:13;8.80;;;4.60;;
62037;SDS011;47991;42.974;12.082;2022-11-15T07:42:00;9.20;;;4.80;;
62037;SDS011;47991;42.974;12.082;2022-11-15T07:45:05;8.10;;;4.40;;
62037;SDS011;47991;42.974;12.082;2022-11-15T07:47:51;8.10;;;4.40;;
62037;SDS011;47991;42.974;12.082;2022-11-15T07:50:42;8.20;;;4.20;;
62037;SDS011;47991;42.974;12.082;2022-11-15T07:53:28;8.10;;;4.10;;
62037;SDS011;47991;42.974;12.082;2022-11-15T07:56:15;8.20;;;4.20;;
62037;SDS011;47991;42.974;12.082;2022-11-15T07:59:01;8.90;;;3.80;;
62037;SDS011;47991;42.974;12.082;2022-11-15T08:01:47;5.80;;;2.80;;
62037;SDS011;47991;42.974;12.082;2022-11-15T08:04:33;5.90;;;2.90;;
62037;SDS011;47991;42.974;12.082;2022-11-15T08:07:20;7.80;;;4.20;;
62037;SDS011;47991;42.974;12.082;2022-11-15T08:10:06;7.60;;;3.90;;
62037;SDS011;47991;42.974;12.082;2022-11-15T08:15:59;9.40;;;5.00;;
62037;SDS011;47991;42.974;12.082;2022-11-15T08:18:47;8.70;;;4.70;;
62037;SDS011;47991;42.974;12.082;2022-11-15T08:21:33;7.20;;;3.50;;
62037;SDS011;47991;42.974;12.082;2022-11-15T08:24:19;7.30;;;3.60;;
62037;SDS011;47991;42.974;12.082;2022-11-15T08:27:05;8.30;;;4.40;;
62037;SDS011;47991;42.974;12.082;2022-11-15T08:30:00;9.50;;;5.70;;
62037;SDS011;47991;42.974;12.082;2022-11-15T08:32:48;12.30;;;7.80;;
62037;SDS011;47991;42.974;12.082;2022-11-15T08:35:34;13.40;;;8.20;;
62037;SDS011;47991;42.974;12.082;2022-11-15T08:38:21;15.00;;;8.20;;
62037;SDS011;47991;42.974;12.082;2022-11-15T08:41:09;16.40;;;9.90;;
62037;SDS011;47991;42.974;12.082;2022-11-15T08:43:59;16.50;;;11.00;;
62037;SDS011;47991;42.974;12.082;2022-11-15T08:46:45;18.00;;;11.30;;
62037;SDS011;47991;42.974;12.082;2022-11-15T08:49:31;11.60;;;7.10;;
62037;SDS011;47991;42.974;12.082;2022-11-15T08:52:18;9.40;;;5.70;;
62037;SDS011;47991;42.974;12.082;2022-11-15T08:55:04;10.80;;;6.20;;
62037;SDS011;47991;42.974;12.082;2022-11-15T08:57:51;10.70;;;6.20;;
62037;SDS011;47991;42.974;12.082;2022-11-15T09:00:37;10.90;;;6.30;;
62037;SDS011;47991;42.974;12.082;2022-11-15T09:03:23;12.40;;;7.70;;
62037;SDS011;47991;42.974;12.082;2022-11-15T09:06:09;10.90;;;6.10;;
62037;SDS011;47991;42.974;12.082;2022-11-15T09:08:55;11.80;;;6.70;;
62037;SDS011;47991;42.974;12.082;2022-11-15T09:11:42;13.20;;;6.80;;
62037;SDS011;47991;42.974;12.082;2022-11-15T09:14:28;10.60;;;5.60;;
62037;SDS011;47991;42.974;12.082;2022-11-15T09:17:15;12.30;;;6.90;;
62037;SDS011;47991;42.974;12.082;2022-11-15T09:20:01;12.60;;;7.20;;
62037;SDS011;47991;42.974;12.082;2022-11-15T09:22:48;10.00;;;5.70;;
62037;SDS011;47991;42.974;12.082;2022-11-15T09:25:34;10.00;;;5.00;;
62037;SDS011;47991;42.974;12.082;2022-11-15T09:28:20;9.70;;;5.20;;
62037;SDS011;47991;42.974;12.082;2022-11-15T09:31:07;9.30;;;5.60;;
62037;SDS011;47991;42.974;12.082;2022-11-15T09:33:55;9.80;;;5.20;;
62037;SDS011;47991;42.974;12.082;2022-11-15T09:36:41;10.80;;;5.70;;
62037;SDS011;47991;42.974;12.082;2022-11-15T09:39:27;11.30;;;6.40;;
62037;SDS011;47991;42.974;12.082;2022-11-15T09:49:15;14.50;;;8.20;;
62037;SDS011;47991;42.974;12.082;2022-11-15T09:52:20;12.70;;;7.60;;
62037;SDS011;47991;42.974;12.082;2022-11-15T09:54:49;13.00;;;7.60;;
62037;SDS011;47991;42.974;12.082;2022-11-15T09:57:21;13.40;;;7.00;;
62037;SDS011;47991;42.974;12.082;2022-11-15T10:05:14;10.60;;;6.20;;
62037;SDS011;47991;42.974;12.082;2022-11-15T10:10:29;11.20;;;6.80;;
62037;SDS011;47991;42.974;12.082;2022-11-15T10:13:02;10.10;;;5.80;;
62037;SDS011;47991;42.974;12.082;2022-11-15T10:15:30;10.50;;;6.10;;
62037;SDS011;47991;42.974;12.082;2022-11-15T10:18:03;11.30;;;6.00;;
62037;SDS011;47991;42.974;12.082;2022-11-15T10:23:14;9.60;;;5.20;;
62037;SDS011;47991;42.974;12.082;2022-11-15T10:25:45;10.20;;;6.00;;
62037;SDS011;47991;42.974;12.082;2022-11-15T10:28:17;10.80;;;6.10;;
62037;SDS011;47991;42.974;12.082;2022-11-15T10:30:58;10.60;;;6.40;;
62037;SDS011;47991;42.974;12.082;2022-11-15T10:33:35;9.50;;;5.10;;
62037;SDS011;47991;42.974;12.082;2022-11-15T10:46:35;9.90;;;5.80;;
62037;SDS011;47991;42.974;12.082;2022-11-15T10:54:47;13.30;;;7.50;;
62037;SDS011;47991;42.974;12.082;2022-11-15T10:57:25;12.00;;;6.90;;
62037;SDS011;47991;42.974;12.082;2022-11-15T10:59:56;10.20;;;6.10;;
62037;SDS011;47991;42.974;12.082;2022-11-15T11:02:37;10.80;;;5.90;;
62037;SDS011;47991;42.974;12.082;2022-11-15T11:08:09;11.90;;;6.80;;
62037;SDS011;47991;42.974;12.082;2022-11-15T11:13:26;11.50;;;6.70;;
62037;SDS011;47991;42.974;12.082;2022-11-15T11:26:44;12.90;;;7.20;;
62037;SDS011;47991;42.974;12.082;2022-11-15T11:29:28;13.20;;;7.00;;
62037;SDS011;47991;42.974;12.082;2022-11-15T11:38:12;11.80;;;7.30;;
62037;SDS011;47991;42.974;12.082;2022-11-15T11:41:08;10.90;;;6.20;;
62037;SDS011;47991;42.974;12.082;2022-11-15T11:43:52;31.60;;;23.20;;
62037;SDS011;47991;42.974;12.082;2022-11-15T11:46:47;14.40;;;8.80;;
62037;SDS011;47991;42.974;12.082;2022-11-15T11:49:24;49.60;;;44.10;;
62037;SDS011;47991;42.974;12.082;2022-11-15T11:54:36;13.30;;;8.10;;
62037;SDS011;47991;42.974;12.082;2022-11-15T11:57:24;17.50;;;13.60;;
62037;SDS011;47991;42.974;12.082;2022-11-15T12:00:03;14.60;;;10.60;;
62037;SDS011;47991;42.974;12.082;2022-11-15T12:02:42;23.10;;;20.70;;
62037;SDS011;47991;42.974;12.082;2022-11-15T12:05:18;13.40;;;8.30;;
62037;SDS011;47991;42.974;12.082;2022-11-15T12:08:40;12.80;;;9.00;;
62037;SDS011;47991;42.974;12.082;2022-11-15T12:11:20;17.20;;;13.00;;
62037;SDS011;47991;42.974;12.082;2022-11-15T12:13:58;50.30;;;45.50;;
62037;SDS011;47991;42.974;12.082;2022-11-15T12:16:29;28.90;;;26.00;;
62037;SDS011;47991;42.974;12.082;2022-11-15T12:19:00;23.20;;;20.60;;
62037;SDS011;47991;42.974;12.082;2022-11-15T12:26:55;16.10;;;10.80;;
62037;SDS011;47991;42.974;12.082;2022-11-15T12:29:52;31.30;;;24.60;;
62037;SDS011;47991;42.974;12.082;2022-11-15T12:32:31;18.20;;;12.20;;
62037;SDS011;47991;42.974;12.082;2022-11-15T12:35:02;17.70;;;11.40;;
62037;SDS011;47991;42.974;12.082;2022-11-15T12:37:33;19.70;;;14.90;;
62037;SDS011;47991;42.974;12.082;2022-11-15T12:43:35;16.40;;;10.30;;
62037;SDS011;47991;42.974;12.082;2022-11-15T12:46:10;15.20;;;9.20;;
62037;SDS011;47991;42.974;12.082;2022-11-15T12:51:07;17.60;;;12.60;;
62037;SDS011;47991;42.974;12.082;2022-11-15T12:53:35;20.90;;;14.80;;
62037;SDS011;47991;42.974;12.082;2022-11-15T12:58:49;15.30;;;10.10;;
62037;SDS011;47991;42.974;12.082;2022-11-15T13:06:40;57.60;;;40.90;;
62037;SDS011;47991;42.974;12.082;2022-11-15T13:12:03;34.80;;;24.60;;
62037;SDS011;47991;42.974;12.082;2022-11-15T13:14:42;24.90;;;16.70;;
62037;SDS011;47991;42.974;12.082;2022-11-15T13:22:14;17.90;;;10.00;;
62037;SDS011;47991;42.974;12.082;2022-11-15T13:25:02;20.50;;;13.00;;
62037;SDS011;47991;42.974;12.082;2022-11-15T13:27:31;27.30;;;17.30;;
62037;SDS011;47991;42.974;12.082;2022-11-15T13:29:58;24.40;;;15.40;;
62037;SDS011;47991;42.974;12.082;2022-11-15T13:32:41;24.70;;;18.60;;
62037;SDS011;47991;42.974;12.082;2022-11-15T13:35:08;22.70;;;14.30;;
62037;SDS011;47991;42.974;12.082;2022-11-15T13:37:35;22.20;;;13.90;;
62037;SDS011;47991;42.974;12.082;2022-11-15T13:46:09;25.10;;;17.40;;
62037;SDS011;47991;42.974;12.082;2022-11-15T13:48:44;25.80;;;19.80;;
62037;SDS011;47991;42.974;12.082;2022-11-15T13:51:24;17.50;;;12.60;;
62037;SDS011;47991;42.974;12.082;2022-11-15T13:57:00;20.80;;;12.80;;
62037;SDS011;47991;42.974;12.082;2022-11-15T13:59:30;16.10;;;11.00;;
62037;SDS011;47991;42.974;12.082;2022-11-15T14:02:03;20.80;;;13.60;;
62037;SDS011;47991;42.974;12.082;2022-11-15T14:04:54;22.60;;;16.20;;
62037;SDS011;47991;42.974;12.082;2022-11-15T14:07:25;17.40;;;11.40;;
62037;SDS011;47991;42.974;12.082;2022-11-15T14:09:57;18.80;;;11.10;;
62037;SDS011;47991;42.974;12.082;2022-11-15T14:14:51;15.60;;;10.00;;
62037;SDS011;47991;42.974;12.082;2022-11-15T14:17:21;18.30;;;12.70;;
62037;SDS011;47991;42.974;12.082;2022-11-15T14:19:55;15.70;;;10.00;;
62037;SDS011;47991;42.974;12.082;2022-11-15T14:22:29;17.00;;;11.60;;
62037;SDS011;47991;42.974;12.082;2022-11-15T14:25:05;15.70;;;10.30;;
62037;SDS011;47991;42.974;12.082;2022-11-15T14:27:40;19.60;;;14.10;;
62037;SDS011;47991;42.974;12.082;2022-11-15T14:30:13;14.70;;;9.80;;
62037;SDS011;47991;42.974;12.082;2022-11-15T14:35:18;21.80;;;18.30;;
62037;SDS011;47991;42.974;12.082;2022-11-15T14:37:48;25.50;;;21.90;;
62037;SDS011;47991;42.974;12.082;2022-11-15T14:43:12;19.00;;;13.70;;
62037;SDS011;47991;42.974;12.082;2022-11-15T14:45:42;15.20;;;10.40;;
62037;SDS011;47991;42.974;12.082;2022-11-15T14:48:09;21.50;;;17.10;;
62037;SDS011;47991;42.974;12.082;2022-11-15T14:53:56;15.70;;;9.90;;
62037;SDS011;47991;42.974;12.082;2022-11-15T14:56:23;14.20;;;9.90;;
62037;SDS011;47991;42.974;12.082;2022-11-15T14:58:52;15.30;;;10.00;;
62037;SDS011;47991;42.974;12.082;2022-11-15T15:01:25;18.20;;;12.10;;
62037;SDS011;47991;42.974;12.082;2022-11-15T15:03:54;15.50;;;10.30;;
62037;SDS011;47991;42.974;12.082;2022-11-15T15:06:25;15.10;;;10.10;;
62037;SDS011;47991;42.974;12.082;2022-11-15T15:08:54;17.60;;;11.60;;
62037;SDS011;47991;42.974;12.082;2022-11-15T15:11:24;25.30;;;18.80;;
62037;SDS011;47991;42.974;12.082;2022-11-15T15:13:56;17.80;;;11.40;;
62037;SDS011;47991;42.974;12.082;2022-11-15T15:18:54;51.90;;;33.20;;
62037;SDS011;47991;42.974;12.082;2022-11-15T15:21:25;21.80;;;13.30;;
62037;SDS011;47991;42.974;12.082;2022-11-15T15:23:54;15.40;;;10.00;;
62037;SDS011;47991;42.974;12.082;2022-11-15T15:26:24;18.10;;;12.80;;
62037;SDS011;47991;42.974;12.082;2022-11-15T15:28:53;17.80;;;12.50;;
62037;SDS011;47991;42.974;12.082;2022-11-15T15:31:20;27.90;;;19.00;;
62037;SDS011;47991;42.974;12.082;2022-11-15T15:33:49;19.60;;;13.50;;
62037;SDS011;47991;42.974;12.082;2022-11-15T15:36:17;23.90;;;15.10;;
62037;SDS011;47991;42.974;12.082;2022-11-15T15:38:45;27.50;;;19.10;;
62037;SDS011;47991;42.974;12.082;2022-11-15T15:41:14;19.30;;;12.50;;
62037;SDS011;47991;42.974;12.082;2022-11-15T15:43:42;24.40;;;15.40;;
62037;SDS011;47991;42.974;12.082;2022-11-15T15:46:11;24.40;;;16.80;;
62037;SDS011;47991;42.974;12.082;2022-11-15T15:48:40;16.90;;;11.50;;
62037;SDS011;47991;42.974;12.082;2022-11-15T15:51:08;19.60;;;13.50;;
62037;SDS011;47991;42.974;12.082;2022-11-15T15:53:35;19.80;;;14.50;;
62037;SDS011;47991;42.974;12.082;2022-11-15T15:56:03;24.50;;;20.10;;
62037;SDS011;47991;42.974;12.082;2022-11-15T15:58:31;18.30;;;12.80;;
62037;SDS011;47991;42.974;12.082;2022-11-15T16:00:59;16.90;;;12.00;;
62037;SDS011;47991;42.974;12.082;2022-11-15T16:03:26;15.90;;;11.50;;
62037;SDS011;47991;42.974;12.082;2022-11-15T16:05:55;18.00;;;11.70;;
62037;SDS011;47991;42.974;12.082;2022-11-15T16:08:23;16.60;;;11.20;;
62037;SDS011;47991;42.974;12.082;2022-11-15T16:10:55;15.50;;;9.90;;
62037;SDS011;47991;42.974;12.082;2022-11-15T16:13:23;18.20;;;11.70;;
62037;SDS011;47991;42.974;12.082;2022-11-15T16:15:52;14.30;;;9.30;;
62037;SDS011;47991;42.974;12.082;2022-11-15T16:18:21;16.40;;;11.10;;
62037;SDS011;47991;42.974;12.082;2022-11-15T16:20:50;15.00;;;11.20;;
62037;SDS011;47991;42.974;12.082;2022-11-15T16:23:21;17.40;;;11.50;;
62037;SDS011;47991;42.974;12.082;2022-11-15T16:25:52;17.60;;;11.70;;
62037;SDS011;47991;42.974;12.082;2022-11-15T16:31:01;17.80;;;11.30;;
62037;SDS011;47991;42.974;12.082;2022-11-15T16:33:39;15.20;;;9.10;;
62037;SDS011;47991;42.974;12.082;2022-11-15T16:36:30;16.60;;;11.40;;
62037;SDS011;47991;42.974;12.082;2022-11-15T16:39:00;18.90;;;11.90;;
62037;SDS011;47991;42.974;12.082;2022-11-15T16:41:31;17.80;;;11.10;;
62037;SDS011;47991;42.974;12.082;2022-11-15T16:43:59;17.10;;;11.00;;
62037;SDS011;47991;42.974;12.082;2022-11-15T16:46:27;17.80;;;11.00;;
62037;SDS011;47991;42.974;12.082;2022-11-15T16:48:56;18.00;;;10.90;;
62037;SDS011;47991;42.974;12.082;2022-11-15T16:51:23;17.50;;;11.30;;
62037;SDS011;47991;42.974;12.082;2022-11-15T16:53:51;15.90;;;10.90;;
62037;SDS011;47991;42.974;12.082;2022-11-15T16:58:50;19.70;;;12.70;;
62037;SDS011;47991;42.974;12.082;2022-11-15T17:01:19;18.20;;;11.50;;
62037;SDS011;47991;42.974;12.082;2022-11-15T17:03:50;18.20;;;12.30;;
62037;SDS011;47991;42.974;12.082;2022-11-15T17:06:18;17.10;;;11.80;;
62037;SDS011;47991;42.974;12.082;2022-11-15T17:08:46;19.00;;;11.50;;
62037;SDS011;47991;42.974;12.082;2022-11-15T17:11:16;14.20;;;9.20;;
62037;SDS011;47991;42.974;12.082;2022-11-15T17:13:47;17.00;;;11.10;;
62037;SDS011;47991;42.974;12.082;2022-11-15T17:16:15;19.90;;;12.20;;
62037;SDS011;47991;42.974;12.082;2022-11-15T17:18:44;18.20;;;11.80;;
62037;SDS011;47991;42.974;12.082;2022-11-15T17:21:19;19.70;;;11.60;;
62037;SDS011;47991;42.974;12.082;2022-11-15T17:23:47;24.20;;;18.60;;
62037;SDS011;47991;42.974;12.082;2022-11-15T17:26:15;18.00;;;12.20;;
62037;SDS011;47991;42.974;12.082;2022-11-15T17:28:43;21.10;;;12.20;;
62037;SDS011;47991;42.974;12.082;2022-11-15T17:31:11;21.30;;;16.20;;
62037;SDS011;47991;42.974;12.082;2022-11-15T17:33:40;17.90;;;12.00;;
62037;SDS011;47991;42.974;12.082;2022-11-15T17:36:09;19.10;;;13.60;;
62037;SDS011;47991;42.974;12.082;2022-11-15T17:38:40;17.40;;;12.30;;
62037;SDS011;47991;42.974;12.082;2022-11-15T17:43:38;19.00;;;12.80;;
62037;SDS011;47991;42.974;12.082;2022-11-15T17:46:07;20.10;;;13.50;;
62037;SDS011;47991;42.974;12.082;2022-11-15T17:48:38;21.50;;;13.90;;
62037;SDS011;47991;42.974;12.082;2022-11-15T17:51:08;19.10;;;13.30;;
62037;SDS011;47991;42.974;12.082;2022-11-15T17:53:38;19.20;;;13.20;;
62037;SDS011;47991;42.974;12.082;2022-11-15T17:56:15;19.80;;;12.90;;
62037;SDS011;47991;42.974;12.082;2022-11-15T17:58:54;19.50;;;12.50;;
62037;SDS011;47991;42.974;12.082;2022-11-15T18:03:59;18.20;;;13.10;;
62037;SDS011;47991;42.974;12.082;2022-11-15T18:06:39;21.30;;;13.60;;
62037;SDS011;47991;42.974;12.082;2022-11-15T18:09:07;20.00;;;14.20;;
62037;SDS011;47991;42.974;12.082;2022-11-15T18:11:37;18.00;;;12.90;;
62037;SDS011;47991;42.974;12.082;2022-11-15T18:16:37;18.50;;;13.20;;
62037;SDS011;47991;42.974;12.082;2022-11-15T18:19:06;14.80;;;11.00;;
62037;SDS011;47991;42.974;12.082;2022-11-15T18:21:40;19.30;;;12.50;;
62037;SDS011;47991;42.974;12.082;2022-11-15T18:24:30;22.10;;;14.70;;